Tampa, FL (33647)

8:32 PM EDT en Marzo 27, 2015 (GMT -0400)
Ashington Estates; Tampa Palms North | | Change Station
CLOSE
Current Station
Estación meteorológica personal
Location: Tampa, FL
Altura: 41 ft
Estaciones meteorológicas cercanas

Alt 41 ft 28.13 °N, 82.39 °W | Updated 5 seconds ago

Nublado
Nublado
64.9 ° F
Sensación térmica 64.9 ° F
N
0.0
Viento Variable Viento desde Oeste
Gusts 0.0 mph

Hoy
Alta -- | Baja -- ° F
--% Posibilidad de precipitaciones
Ayer
Alta -- | Baja -- ° F
Precip. -- pul
7:25 AM 7:44 PM
Cuarto creciente, 57% visible
Presión 29.90 pul
Visibilidad 10.0 Millas
Nubes Nubes dispersas 1600 ft
Muy nublado 4900 ft
Muy nublado 6500 ft
Punto de rocío 64 ° F
Humedad 96%
Precipitaciones 0.56 pul
Espesor de la nieve No disponible.
UV 0 de una escala de 12
Polen 5.00 de una escala de 12
Calidad del aire No disponible.
Flu Activity No disponible.
METAR KVDF 280015Z AUTO 31006KT 10SM SCT016 BKN049 BKN065 20/17 A2990 RMK AO2

More Conditions Fewer Conditions

Presión 29.90 pul
Visibilidad 10.0 Millas
Nubes Nubes dispersas 1600 ft
Muy nublado 4900 ft
Muy nublado 6500 ft
Punto de rocío 64 ° F
Humedad 96%
Precipitaciones 0.56 pul
Espesor de la nieve No disponible.
UV 0 de una escala de 12
Polen 5.00 de una escala de 12
Calidad del aire No disponible.
Flu Activity No disponible.
METAR KVDF 280015Z AUTO 31006KT 10SM SCT016 BKN049 BKN065 20/17 A2990 RMK AO2

More Conditions Fewer Conditions

10-Day Weather Forecast

Almanac

Astronomía

Mar. 27, 2015 Salida Puesta
Hora real
Crepúsculo civil
Crepúsculo náutico
Crepúsculo astronómico
Luna
Horas de luz
Horas de luz
Tomorrow will be .
, % of the Moon is Illuminated

Extremos de hoy

Máximos del estado Bajos del estado

Community

WunderPhotos

Upload Photos

1,808,887 ¡fotos cargadas!

WunderBlogs® & News

Nearby

Calidad del aire

  Calidad del aire Índice AQ Contaminante
Not available.

Grosos de nieve

Estación Profundido Altura

Actividad de terremotos

Ciudad Distance Mag. Tiempo y dato
Magnitud mínima muestra es 2,5.

Temperaturas de aguas costeras

Lugar Temperatura

Stations

Estaciones meteorológicas cercanas

Ubicación de la estación Temp. Vientos helados Punto de rocío Humedad Viento Precip. Alt Actualizado Tipo